Time;durP1;ratioP1;P1;durP2;ratioP2;P2;SDS_P1;SDS_P2;PMS_P1;PMS_P2;Temp;Humidity;BMP_temperature;BMP_pressure;BME280_temperature;BME280_humidity;BME280_pressure;Samples;Min_cycle;Max_cycle;Signal;HPM_P1;HPM_P2
2023/08/14 00:04:37;;;;;;;;;;;17.90;99.90;;;;;;12372085;28;19926;-85
2023/08/14 00:10:39;;;;;;;;;;;17.70;99.90;;;;;;12392540;28;19930;-84
2023/08/14 00:16:41;;;;;;;;;;;17.60;99.90;;;;;;12363474;28;19932;-85
2023/08/14 00:22:43;;;;;;;;;;;17.30;99.90;;;;;;12367423;28;19926;-85
2023/08/14 00:28:45;;;;;;;;;;;17.40;99.90;;;;;;12347846;28;19926;-85
2023/08/14 00:34:46;;;;;;;;;;;17.40;99.90;;;;;;12356573;28;19972;-86
2023/08/14 00:40:48;;;;;;;;;;;17.60;99.90;;;;;;12348262;28;20049;-85
2023/08/14 00:46:51;;;;;;;;;;;17.60;99.90;;;;;;12356647;28;19926;-85
2023/08/14 00:52:55;;;;;;;;;;;17.80;99.90;;;;;;12365407;28;19925;-85
2023/08/14 00:58:57;;;;;;;;;;;17.70;99.90;;;;;;12357816;28;19926;-85
2023/08/14 01:05:00;;;;;;;;;;;17.60;99.90;;;;;;12363678;28;19933;-85
2023/08/14 01:11:01;;;;;;;;;;;17.60;99.90;;;;;;12355709;28;19933;-85
2023/08/14 01:17:06;;;;;;;;;;;17.50;99.90;;;;;;12353872;28;20417;-84
2023/08/14 01:23:22;;;;;;;;;;;17.50;99.90;;;;;;12345947;28;19973;-84
2023/08/14 01:29:24;;;;;;;;;;;17.30;99.90;;;;;;12366655;28;20330;-84
2023/08/14 01:35:26;;;;;;;;;;;16.90;99.90;;;;;;12361645;28;19992;-84
2023/08/14 01:41:31;;;;;;;;;;;16.80;99.90;;;;;;12350255;28;19929;-84
2023/08/14 01:47:34;;;;;;;;;;;16.90;99.90;;;;;;12378092;28;19926;-84
2023/08/14 01:53:36;;;;;;;;;;;17.10;99.90;;;;;;12356726;28;19926;-83
2023/08/14 01:59:42;;;;;;;;;;;17.20;99.90;;;;;;12374402;28;19930;-83
2023/08/14 02:05:44;;;;;;;;;;;17.20;99.90;;;;;;12359281;28;20345;-83
2023/08/14 02:11:46;;;;;;;;;;;17.20;99.90;;;;;;12369794;28;19926;-83
2023/08/14 02:17:48;;;;;;;;;;;17.00;99.90;;;;;;12363389;28;19925;-83
2023/08/14 02:23:50;;;;;;;;;;;16.90;99.90;;;;;;12366512;28;20057;-83
2023/08/14 02:29:52;;;;;;;;;;;16.90;99.90;;;;;;12379116;28;19938;-83
2023/08/14 02:35:54;;;;;;;;;;;16.70;99.90;;;;;;12360836;28;20382;-83
2023/08/14 02:41:56;;;;;;;;;;;16.70;99.90;;;;;;12363630;28;19970;-83
2023/08/14 02:47:58;;;;;;;;;;;16.80;99.90;;;;;;12361360;28;19930;-83
2023/08/14 02:54:00;;;;;;;;;;;16.80;99.90;;;;;;12369085;28;19930;-83
2023/08/14 03:00:04;;;;;;;;;;;16.60;99.90;;;;;;12383449;28;20703;-83
2023/08/14 03:06:06;;;;;;;;;;;16.50;99.90;;;;;;12402531;28;19926;-83
2023/08/14 03:12:07;;;;;;;;;;;16.60;99.90;;;;;;12399769;28;19924;-83
2023/08/14 03:18:10;;;;;;;;;;;16.60;99.90;;;;;;12414815;28;19965;-83
2023/08/14 03:24:11;;;;;;;;;;;16.60;99.90;;;;;;12393623;28;19924;-83
2023/08/14 03:30:16;;;;;;;;;;;16.70;99.90;;;;;;12406319;28;19925;-83
2023/08/14 03:36:18;;;;;;;;;;;16.60;99.90;;;;;;12383336;28;19992;-83
2023/08/14 03:42:20;;;;;;;;;;;16.70;99.90;;;;;;12374909;28;19929;-83
2023/08/14 03:48:22;;;;;;;;;;;16.70;99.90;;;;;;12359538;28;20019;-83
2023/08/14 03:54:24;;;;;;;;;;;16.70;99.90;;;;;;12349832;28;20394;-83
2023/08/14 04:00:27;;;;;;;;;;;16.70;99.90;;;;;;12344646;28;19980;-83
2023/08/14 04:06:29;;;;;;;;;;;16.60;99.90;;;;;;12356784;28;19930;-83
2023/08/14 04:12:31;;;;;;;;;;;16.70;99.90;;;;;;12369085;28;19930;-83
2023/08/14 04:18:34;;;;;;;;;;;16.60;99.90;;;;;;12351486;28;19953;-83
2023/08/14 04:24:35;;;;;;;;;;;16.60;99.90;;;;;;12343275;28;19926;-83
2023/08/14 04:30:37;;;;;;;;;;;16.60;99.90;;;;;;12336037;28;19937;-83
2023/08/14 04:36:39;;;;;;;;;;;16.60;99.90;;;;;;12355285;28;19932;-83
2023/08/14 04:42:41;;;;;;;;;;;16.70;99.90;;;;;;12333413;28;19980;-83
2023/08/14 04:48:43;;;;;;;;;;;16.70;99.90;;;;;;12365774;28;19926;-83
2023/08/14 04:54:45;;;;;;;;;;;16.60;99.90;;;;;;12371977;28;20012;-83
2023/08/14 05:00:47;;;;;;;;;;;16.80;99.90;;;;;;12359758;28;19969;-83
2023/08/14 05:06:49;;;;;;;;;;;18.80;99.90;;;;;;12353948;28;19934;-83
2023/08/14 05:12:51;;;;;;;;;;;20.60;99.90;;;;;;12385835;28;20341;-83
2023/08/14 05:18:53;;;;;;;;;;;21.00;99.90;;;;;;12367643;28;20009;-83
2023/08/14 05:24:56;;;;;;;;;;;20.50;99.90;;;;;;12361564;28;19932;-85
2023/08/14 05:30:58;;;;;;;;;;;19.60;99.90;;;;;;12353036;28;20402;-84
2023/08/14 05:37:00;;;;;;;;;;;18.90;99.90;;;;;;12375085;28;19956;-84
2023/08/14 05:43:03;;;;;;;;;;;18.50;99.90;;;;;;12364903;28;19980;-85
2023/08/14 05:49:05;;;;;;;;;;;17.90;99.90;;;;;;12359833;28;19965;-85
2023/08/14 05:55:07;;;;;;;;;;;17.60;99.90;;;;;;12358139;28;19930;-85
2023/08/14 06:01:09;;;;;;;;;;;17.60;99.90;;;;;;12372547;28;19926;-84
2023/08/14 06:07:12;;;;;;;;;;;17.30;99.90;;;;;;12364769;28;19926;-85
2023/08/14 06:13:14;;;;;;;;;;;17.30;99.90;;;;;;12362339;28;19926;-84
2023/08/14 06:19:16;;;;;;;;;;;17.30;99.90;;;;;;12372970;28;19926;-85
2023/08/14 06:25:18;;;;;;;;;;;17.60;99.90;;;;;;12354680;28;19926;-85
2023/08/14 06:31:20;;;;;;;;;;;18.00;99.90;;;;;;12388534;28;19937;-85
2023/08/14 06:37:22;;;;;;;;;;;18.20;99.90;;;;;;12368343;28;19933;-84
2023/08/14 06:43:24;;;;;;;;;;;18.60;99.90;;;;;;12351665;28;20389;-83
2023/08/14 06:49:26;;;;;;;;;;;18.80;99.90;;;;;;12357029;28;20002;-83
2023/08/14 06:55:28;;;;;;;;;;;18.90;99.90;;;;;;12372020;28;19925;-84
2023/08/14 07:01:30;;;;;;;;;;;19.00;99.90;;;;;;12365072;28;19936;-83
2023/08/14 07:07:32;;;;;;;;;;;19.30;99.90;;;;;;12369917;28;19949;-83
2023/08/14 07:13:34;;;;;;;;;;;19.60;99.90;;;;;;12351773;28;20298;-83
2023/08/14 07:19:36;;;;;;;;;;;19.80;99.90;;;;;;12353948;28;19926;-83
2023/08/14 07:25:38;;;;;;;;;;;19.90;99.90;;;;;;12370698;28;20030;-83
2023/08/14 07:31:40;;;;;;;;;;;20.00;99.90;;;;;;12358476;28;20386;-83
2023/08/14 07:37:42;;;;;;;;;;;20.10;99.90;;;;;;12352717;28;20383;-83
2023/08/14 07:43:44;;;;;;;;;;;20.20;99.90;;;;;;12344067;28;19926;-85
2023/08/14 07:49:46;;;;;;;;;;;20.20;99.90;;;;;;12347944;28;19926;-85
2023/08/14 07:55:48;;;;;;;;;;;20.30;99.90;;;;;;12348695;28;19933;-85
2023/08/14 08:01:50;;;;;;;;;;;20.50;99.90;;;;;;12368153;28;20072;-85
2023/08/14 08:07:51;;;;;;;;;;;20.40;99.90;;;;;;12344687;28;20056;-86
2023/08/14 08:13:53;;;;;;;;;;;20.70;99.90;;;;;;12348788;28;19964;-86
2023/08/14 08:19:59;;;;;;;;;;;20.80;99.90;;;;;;12362066;28;19926;-85
2023/08/14 08:26:01;;;;;;;;;;;20.90;99.90;;;;;;12354358;28;19944;-85
2023/08/14 08:32:04;;;;;;;;;;;21.00;99.90;;;;;;12365699;28;19931;-86
2023/08/14 08:38:06;;;;;;;;;;;21.00;99.90;;;;;;12358929;28;20393;-86
2023/08/14 08:44:23;;;;;;;;;;;21.10;99.90;;;;;;12367383;28;19925;-86
2023/08/14 08:50:25;;;;;;;;;;;21.10;99.90;;;;;;12371484;28;19941;-86
2023/08/14 08:56:27;;;;;;;;;;;21.30;99.90;;;;;;12369582;28;19949;-83
2023/08/14 09:02:29;;;;;;;;;;;21.10;99.90;;;;;;12354581;28;19980;-83
2023/08/14 09:08:31;;;;;;;;;;;21.00;99.90;;;;;;12351718;28;19936;-83
2023/08/14 09:14:34;;;;;;;;;;;20.80;99.90;;;;;;12342139;28;20473;-84
2023/08/14 09:20:36;;;;;;;;;;;20.80;99.90;;;;;;12350671;28;20345;-84
2023/08/14 09:26:38;;;;;;;;;;;20.80;99.90;;;;;;12357956;28;20275;-83
2023/08/14 09:32:40;;;;;;;;;;;21.30;99.90;;;;;;12353429;28;20044;-83
2023/08/14 09:38:42;;;;;;;;;;;21.60;99.90;;;;;;12367081;28;19930;-83
2023/08/14 09:44:45;;;;;;;;;;;21.90;99.90;;;;;;12335859;28;19938;-83
2023/08/14 09:50:51;;;;;;;;;;;22.40;99.90;;;;;;12369245;28;19926;-83
2023/08/14 09:56:54;;;;;;;;;;;22.70;99.90;;;;;;12367537;28;19926;-83
2023/08/14 10:02:58;;;;;;;;;;;23.50;99.90;;;;;;12358928;28;19930;-82
2023/08/14 10:09:05;;;;;;;;;;;23.60;99.90;;;;;;12363900;28;20298;-83
2023/08/14 10:15:09;;;;;;;;;;;24.00;99.90;;;;;;12371217;28;20085;-83
2023/08/14 10:21:14;;;;;;;;;;;24.20;99.90;;;;;;12352380;28;19930;-84
2023/08/14 10:27:16;;;;;;;;;;;24.30;99.90;;;;;;12345374;28;19930;-84
2023/08/14 10:33:20;;;;;;;;;;;24.60;99.90;;;;;;12342241;28;19929;-83
2023/08/14 10:39:31;;;;;;;;;;;24.70;99.90;;;;;;12352880;28;20016;-84
2023/08/14 10:45:34;;;;;;;;;;;25.00;99.90;;;;;;12353421;28;19933;-84
2023/08/14 10:51:39;;;;;;;;;;;25.30;99.90;;;;;;12341507;28;19972;-83
2023/08/14 10:57:40;;;;;;;;;;;25.50;99.90;;;;;;12345808;28;20517;-83
2023/08/14 11:03:56;;;;;;;;;;;25.60;99.90;;;;;;12370464;28;19926;-84
2023/08/14 11:09:59;;;;;;;;;;;25.70;99.90;;;;;;12357607;28;20068;-83
2023/08/14 11:16:05;;;;;;;;;;;25.80;99.90;;;;;;12347067;28;19949;-85
2023/08/14 11:22:07;;;;;;;;;;;26.00;99.90;;;;;;12352613;28;19930;-84
2023/08/14 11:28:09;;;;;;;;;;;26.20;99.90;;;;;;12350768;28;19948;-84
2023/08/14 11:34:11;;;;;;;;;;;26.10;99.90;;;;;;12354372;28;19930;-85
2023/08/14 11:40:15;;;;;;;;;;;26.10;99.90;;;;;;12339068;28;19926;-83
2023/08/14 11:46:18;;;;;;;;;;;26.40;99.90;;;;;;12342696;28;20024;-84
2023/08/14 11:52:20;;;;;;;;;;;26.10;99.90;;;;;;12358260;28;19934;-84
2023/08/14 11:58:25;;;;;;;;;;;26.50;99.90;;;;;;12324561;28;20018;-84
2023/08/14 12:04:26;;;;;;;;;;;26.60;99.90;;;;;;12335221;28;20298;-83
2023/08/14 12:10:35;;;;;;;;;;;26.80;99.90;;;;;;12341649;28;19926;-83
2023/08/14 12:16:37;;;;;;;;;;;27.00;99.90;;;;;;12319915;28;19927;-84
2023/08/14 12:22:42;;;;;;;;;;;27.20;99.90;;;;;;12324906;28;19926;-84
2023/08/14 12:28:50;;;;;;;;;;;27.10;99.90;;;;;;12338875;28;19934;-83
2023/08/14 12:34:52;;;;;;;;;;;26.40;99.90;;;;;;12323441;28;19976;-83
2023/08/14 12:40:55;;;;;;;;;;;26.30;99.90;;;;;;12322637;28;19926;-82
2023/08/14 12:46:57;;;;;;;;;;;26.70;99.90;;;;;;12343527;28;20055;-84
2023/08/14 12:52:59;;;;;;;;;;;26.80;99.90;;;;;;12324633;28;19952;-83
2023/08/14 12:59:01;;;;;;;;;;;26.20;99.90;;;;;;12329803;28;19930;-83
2023/08/14 13:05:03;;;;;;;;;;;26.10;99.90;;;;;;12342471;28;20595;-85
2023/08/14 13:11:06;;;;;;;;;;;26.30;99.90;;;;;;12331178;28;19974;-84
2023/08/14 13:17:08;;;;;;;;;;;26.40;99.90;;;;;;12322557;28;19930;-84
2023/08/14 13:23:09;;;;;;;;;;;26.70;99.90;;;;;;12318231;28;19933;-83
2023/08/14 13:29:11;;;;;;;;;;;26.60;99.90;;;;;;12319845;28;19930;-83
2023/08/14 13:35:14;;;;;;;;;;;26.60;99.90;;;;;;12318415;28;19979;-83
2023/08/14 13:41:16;;;;;;;;;;;26.40;99.90;;;;;;12313124;28;19957;-85
2023/08/14 13:47:18;;;;;;;;;;;26.60;99.90;;;;;;12345125;28;20398;-85
2023/08/14 13:53:20;;;;;;;;;;;26.70;99.90;;;;;;12322345;28;19927;-84
2023/08/14 13:59:23;;;;;;;;;;;26.40;99.90;;;;;;12331009;28;19948;-85
2023/08/14 14:05:25;;;;;;;;;;;26.20;99.90;;;;;;12333567;28;19926;-85
2023/08/14 14:11:28;;;;;;;;;;;25.90;99.90;;;;;;12326189;28;20370;-84
2023/08/14 14:17:30;;;;;;;;;;;25.70;99.90;;;;;;12321766;28;19977;-85
2023/08/14 14:23:32;;;;;;;;;;;25.60;99.90;;;;;;12312621;28;19989;-85
2023/08/14 14:29:33;;;;;;;;;;;25.40;99.90;;;;;;12340121;28;19930;-86
2023/08/14 14:35:36;;;;;;;;;;;25.30;99.90;;;;;;12322527;28;19926;-87
2023/08/14 14:41:38;;;;;;;;;;;25.40;99.90;;;;;;12318078;28;20076;-85
2023/08/14 14:47:40;;;;;;;;;;;25.30;99.90;;;;;;12327473;28;19941;-85
2023/08/14 14:53:42;;;;;;;;;;;25.30;99.90;;;;;;12326978;28;19941;-86
2023/08/14 14:59:48;;;;;;;;;;;25.30;99.90;;;;;;12365580;28;19930;-85
2023/08/14 15:05:53;;;;;;;;;;;25.30;99.90;;;;;;12368926;28;19925;-86
2023/08/14 15:11:55;;;;;;;;;;;25.40;99.90;;;;;;12372307;28;20385;-86
2023/08/14 15:17:57;;;;;;;;;;;25.60;99.90;;;;;;12365146;28;19946;-85
2023/08/14 15:24:00;;;;;;;;;;;25.70;99.90;;;;;;12384569;28;19930;-87
2023/08/14 15:30:02;;;;;;;;;;;25.70;99.90;;;;;;12400161;28;19930;-87
2023/08/14 15:36:05;;;;;;;;;;;25.60;99.90;;;;;;12406205;28;19976;-87
2023/08/14 15:42:07;;;;;;;;;;;25.50;99.90;;;;;;12374063;28;19933;-86
2023/08/14 15:48:09;;;;;;;;;;;25.40;99.90;;;;;;12370147;28;19926;-86
2023/08/14 15:54:11;;;;;;;;;;;25.40;99.90;;;;;;12353365;28;20407;-85
2023/08/14 16:00:13;;;;;;;;;;;25.70;99.90;;;;;;12379890;28;19930;-86
2023/08/14 16:06:15;;;;;;;;;;;25.90;99.90;;;;;;12355442;28;20015;-86
2023/08/14 16:12:20;;;;;;;;;;;25.80;99.90;;;;;;12366471;28;19926;-86
2023/08/14 16:18:22;;;;;;;;;;;26.00;99.90;;;;;;12377303;28;19940;-85
2023/08/14 16:24:25;;;;;;;;;;;26.20;99.90;;;;;;12408061;28;19933;-86
2023/08/14 16:30:26;;;;;;;;;;;26.00;99.90;;;;;;12395416;28;20017;-85
2023/08/14 16:36:28;;;;;;;;;;;25.80;99.90;;;;;;12390824;28;19930;-85
2023/08/14 16:42:30;;;;;;;;;;;25.60;99.90;;;;;;12362753;28;19931;-84
2023/08/14 16:48:32;;;;;;;;;;;25.50;99.90;;;;;;12335411;28;19930;-86
2023/08/14 16:54:34;;;;;;;;;;;25.40;99.90;;;;;;12285616;23;19980;-38
2023/08/14 17:00:37;;;;;;;;;;;25.30;99.90;;;;;;12333807;28;19930;-38
2023/08/14 17:06:39;;;;;;;;;;;25.20;99.90;;;;;;12318580;28;19926;-38
2023/08/14 17:12:41;;;;;;;;;;;25.10;99.90;;;;;;12329233;28;19926;-38
2023/08/14 17:18:43;;;;;;;;;;;25.00;99.90;;;;;;12333044;28;20401;-40
2023/08/14 17:24:44;;;;;;;;;;;25.00;99.90;;;;;;12383796;28;19948;-39
2023/08/14 17:30:50;;;;;;;;;;;25.40;99.90;;;;;;12344080;28;19929;-39
2023/08/14 17:36:52;;;;;;;;;;;26.20;99.90;;;;;;12375072;28;19926;-39
2023/08/14 17:42:54;;;;;;;;;;;26.80;99.90;;;;;;12363704;28;20155;-41
2023/08/14 17:48:56;;;;;;;;;;;27.00;99.90;;;;;;12377636;28;19980;-38
2023/08/14 17:54:58;;;;;;;;;;;26.70;99.90;;;;;;12374663;28;20409;-39
2023/08/14 18:00:59;;;;;;;;;;;26.40;99.90;;;;;;12381688;28;19934;-39
2023/08/14 18:07:01;;;;;;;;;;;25.80;99.90;;;;;;12359766;28;19942;-38
2023/08/14 18:13:03;;;;;;;;;;;25.30;99.90;;;;;;12366167;28;19933;-39
2023/08/14 18:19:05;;;;;;;;;;;25.00;99.90;;;;;;12382304;28;19933;-37
2023/08/14 18:25:27;;;;;;;;;;;24.60;99.90;;;;;;12385556;28;20408;-38
2023/08/14 18:31:29;;;;;;;;;;;24.40;99.90;;;;;;12367935;28;19929;-37
2023/08/14 18:37:31;;;;;;;;;;;24.20;99.90;;;;;;12372110;28;20314;-37
2023/08/14 18:43:33;;;;;;;;;;;24.10;99.90;;;;;;12364020;28;20362;-37
2023/08/14 18:49:35;;;;;;;;;;;24.10;99.90;;;;;;12384436;28;19933;-37
2023/08/14 18:55:40;;;;;;;;;;;23.90;99.90;;;;;;12387659;28;20398;-37
2023/08/14 19:01:42;;;;;;;;;;;23.60;99.90;;;;;;12369866;28;19926;-37
2023/08/14 19:07:44;;;;;;;;;;;23.50;99.90;;;;;;12373239;28;19987;-36
2023/08/14 19:13:45;;;;;;;;;;;23.10;99.90;;;;;;12380199;28;19953;-37
2023/08/14 19:19:47;;;;;;;;;;;23.00;99.90;;;;;;12381819;28;19926;-38
2023/08/14 19:25:49;;;;;;;;;;;22.60;99.90;;;;;;12382358;28;19973;-37
2023/08/14 19:31:51;;;;;;;;;;;22.50;99.90;;;;;;12395945;28;20111;-37
2023/08/14 19:37:54;;;;;;;;;;;22.40;99.90;;;;;;12384069;28;20506;-37
2023/08/14 19:43:56;;;;;;;;;;;22.20;99.90;;;;;;12386356;28;19930;-37
2023/08/14 19:49:58;;;;;;;;;;;21.90;99.90;;;;;;12384879;28;19926;-37
2023/08/14 19:56:00;;;;;;;;;;;22.00;99.90;;;;;;12392281;28;19980;-37
2023/08/14 20:02:02;;;;;;;;;;;21.90;99.90;;;;;;12383328;28;19937;-37
2023/08/14 20:08:04;;;;;;;;;;;21.90;99.90;;;;;;12380737;28;20263;-37
2023/08/14 20:14:06;;;;;;;;;;;21.70;99.90;;;;;;12362945;28;19934;-37
2023/08/14 20:20:08;;;;;;;;;;;21.50;99.90;;;;;;12377073;28;20012;-37
2023/08/14 20:26:10;;;;;;;;;;;21.40;99.90;;;;;;12391351;28;19941;-37
2023/08/14 20:32:12;;;;;;;;;;;21.70;99.90;;;;;;12388921;28;19926;-37
2023/08/14 20:38:14;;;;;;;;;;;21.70;99.90;;;;;;12384360;28;20416;-37
2023/08/14 20:44:15;;;;;;;;;;;21.50;99.90;;;;;;12390580;28;20072;-37
2023/08/14 20:50:17;;;;;;;;;;;21.50;99.90;;;;;;12386686;28;20020;-37
2023/08/14 20:56:20;;;;;;;;;;;21.40;99.90;;;;;;12385683;28;20058;-38
2023/08/14 21:02:22;;;;;;;;;;;21.50;99.90;;;;;;12392233;28;19929;-37
2023/08/14 21:08:24;;;;;;;;;;;21.60;99.90;;;;;;12363555;28;19925;-37
2023/08/14 21:14:25;;;;;;;;;;;21.70;99.90;;;;;;12390990;28;20398;-37
2023/08/14 21:20:27;;;;;;;;;;;21.60;99.90;;;;;;12387463;28;20016;-37
2023/08/14 21:26:29;;;;;;;;;;;21.60;99.90;;;;;;12387563;28;19980;-37
2023/08/14 21:32:33;;;;;;;;;;;21.70;99.90;;;;;;12389964;28;19941;-40
2023/08/14 21:38:34;;;;;;;;;;;21.70;99.90;;;;;;12378877;28;19926;-37
2023/08/14 21:44:36;;;;;;;;;;;21.80;99.90;;;;;;12387398;28;20023;-37
2023/08/14 21:50:38;;;;;;;;;;;21.80;99.90;;;;;;12385044;28;20390;-37
2023/08/14 21:56:40;;;;;;;;;;;21.80;99.90;;;;;;12385467;28;19980;-37
2023/08/14 22:02:41;;;;;;;;;;;21.90;99.90;;;;;;12384503;28;19957;-37
2023/08/14 22:08:43;;;;;;;;;;;21.90;99.90;;;;;;12387044;28;19926;-39
2023/08/14 22:14:45;;;;;;;;;;;21.90;99.90;;;;;;12372664;28;19926;-38
2023/08/14 22:20:51;;;;;;;;;;;21.80;99.90;;;;;;12363830;28;20246;-38
2023/08/14 22:26:53;;;;;;;;;;;21.80;99.90;;;;;;12355561;28;19926;-37
2023/08/14 22:32:55;;;;;;;;;;;21.80;99.90;;;;;;12368443;28;19933;-37
2023/08/14 22:38:57;;;;;;;;;;;21.80;99.90;;;;;;12379886;28;19937;-37
2023/08/14 22:45:00;;;;;;;;;;;21.80;99.90;;;;;;12368304;28;19926;-37
2023/08/14 22:51:01;;;;;;;;;;;21.80;99.90;;;;;;12381906;28;19930;-37
2023/08/14 22:57:03;;;;;;;;;;;21.70;99.90;;;;;;12385788;28;19926;-38
2023/08/14 23:03:05;;;;;;;;;;;21.70;99.90;;;;;;12374104;28;20414;-38
2023/08/14 23:09:07;;;;;;;;;;;21.60;99.90;;;;;;12378985;28;19926;-38
2023/08/14 23:15:09;;;;;;;;;;;21.60;99.90;;;;;;12385092;28;19926;-37
2023/08/14 23:21:10;;;;;;;;;;;21.60;99.90;;;;;;12376597;28;19988;-37
2023/08/14 23:27:12;;;;;;;;;;;21.50;99.90;;;;;;12364551;28;19930;-37
2023/08/14 23:33:14;;;;;;;;;;;21.60;99.90;;;;;;12384234;28;20406;-38
2023/08/14 23:39:16;;;;;;;;;;;21.60;99.90;;;;;;12384906;28;20386;-38
2023/08/14 23:45:19;;;;;;;;;;;21.50;99.90;;;;;;12420094;23;19925;-86
2023/08/14 23:51:22;;;;;;;;;;;21.50;99.90;;;;;;12408806;28;19926;-86
2023/08/14 23:57:24;;;;;;;;;;;21.50;99.90;;;;;;12400353;28;19926;-86
